Time;durP1;ratioP1;P1;durP2;ratioP2;P2;SDS_P1;SDS_P2;PMS_P1;PMS_P2;Temp;Humidity;BMP_temperature;BMP_pressure;BME280_temperature;BME280_humidity;BME280_pressure;Samples;Min_cycle;Max_cycle;Signal;HPM_P1;HPM_P2
2022/09/10 00:00:55;;;;;;;6.25;0.80;;;;;;;14.54;100.00;100742.00;4987233;28;20039;-75
2022/09/10 00:03:22;;;;;;;3.95;0.70;;;;;;;14.58;100.00;100750.31;4986988;28;20041;-77
2022/09/10 00:05:48;;;;;;;4.30;1.00;;;;;;;14.53;100.00;100756.03;4983030;28;20050;-76
2022/09/10 00:08:14;;;;;;;4.10;1.48;;;;;;;14.50;100.00;100759.00;4986793;28;20100;-75
2022/09/10 00:10:42;;;;;;;2.65;0.75;;;;;;;14.55;100.00;100763.69;4978813;28;20061;-75
2022/09/10 00:13:08;;;;;;;5.00;0.70;;;;;;;14.52;100.00;100761.44;4981910;28;20096;-76
2022/09/10 00:15:46;;;;;;;6.00;1.08;;;;;;;14.53;100.00;100760.44;4985061;28;21092;-76
2022/09/10 00:18:14;;;;;;;1.42;0.50;;;;;;;14.55;100.00;100754.03;4998733;28;20027;-76
2022/09/10 00:20:52;;;;;;;3.75;0.90;;;;;;;14.56;100.00;100744.41;4967943;28;20606;-76
2022/09/10 00:23:22;;;;;;;3.47;0.60;;;;;;;14.58;100.00;100748.50;4982692;28;20027;-76
2022/09/10 00:25:50;;;;;;;3.72;1.05;;;;;;;14.55;100.00;100750.63;4983528;28;20862;-77
2022/09/10 00:28:16;;;;;;;3.53;1.00;;;;;;;14.51;100.00;100752.78;4984711;28;20088;-76
2022/09/10 00:30:45;;;;;;;6.45;1.00;;;;;;;14.54;100.00;100749.00;4997584;28;20104;-76
2022/09/10 00:33:11;;;;;;;5.43;1.67;;;;;;;14.55;100.00;100759.25;4984909;28;20113;-78
2022/09/10 00:35:39;;;;;;;7.43;1.70;;;;;;;14.57;100.00;100759.13;4985471;28;20034;-77
2022/09/10 00:38:05;;;;;;;3.20;1.25;;;;;;;14.55;100.00;100756.66;4984524;28;20679;-76
2022/09/10 00:40:31;;;;;;;2.80;1.20;;;;;;;14.59;100.00;100764.97;4983014;28;20069;-77
2022/09/10 00:42:57;;;;;;;3.03;1.10;;;;;;;14.62;100.00;100769.81;4982085;28;20034;-77
2022/09/10 00:45:28;;;;;;;3.28;1.00;;;;;;;14.72;100.00;100772.13;4984173;28;20494;-76
2022/09/10 00:48:01;;;;;;;9.07;1.92;;;;;;;14.67;100.00;100758.81;4979327;28;20039;-75
2022/09/10 00:50:34;;;;;;;1.85;0.73;;;;;;;14.60;100.00;100759.56;4979611;28;20030;-76
2022/09/10 00:53:05;;;;;;;2.92;0.93;;;;;;;14.57;100.00;100752.09;4978802;28;20037;-76
2022/09/10 00:55:33;;;;;;;2.08;0.68;;;;;;;14.54;100.00;100755.06;4981465;28;20026;-76
2022/09/10 00:58:02;;;;;;;4.78;1.15;;;;;;;14.57;100.00;100748.69;4981608;28;20044;-76
2022/09/10 01:00:29;;;;;;;5.35;1.30;;;;;;;14.63;100.00;100750.53;4964896;28;20027;-77
2022/09/10 01:02:54;;;;;;;8.73;1.67;;;;;;;14.81;100.00;100749.34;4979748;28;20030;-76
2022/09/10 01:05:20;;;;;;;4.03;1.13;;;;;;;14.65;100.00;100732.91;4977501;28;20019;-76
2022/09/10 01:07:47;;;;;;;2.70;1.13;;;;;;;14.59;100.00;100739.66;4977820;28;20073;-76
2022/09/10 01:10:22;;;;;;;4.45;1.52;;;;;;;14.58;100.00;100743.28;4980156;28;20054;-77
2022/09/10 01:13:02;;;;;;;5.72;1.30;;;;;;;14.64;100.00;100733.09;4978091;28;20097;-76
2022/09/10 01:15:47;;;;;;;5.25;1.42;;;;;;;14.66;100.00;100733.72;4964342;28;20057;-76
2022/09/10 01:18:31;;;;;;;4.10;1.10;;;;;;;14.62;100.00;100732.47;4983720;28;20038;-77
2022/09/10 01:21:20;;;;;;;2.13;1.10;;;;;;;14.60;100.00;100736.06;4983176;28;20034;-77
2022/09/10 01:24:04;;;;;;;2.83;1.00;;;;;;;14.60;100.00;100736.06;4981093;28;20035;-77
2022/09/10 01:26:37;;;;;;;7.28;1.20;;;;;;;14.59;100.00;100736.25;4982709;28;20034;-76
2022/09/10 01:29:30;;;;;;;4.85;1.25;;;;;;;14.62;100.00;100738.50;4981195;28;20042;-77
2022/09/10 01:32:11;;;;;;;3.83;1.00;;;;;;;14.66;100.00;100738.94;4977480;28;20169;-77
2022/09/10 01:34:49;;;;;;;2.40;1.15;;;;;;;14.65;100.00;100748.56;4983836;28;20862;-77
2022/09/10 01:37:20;;;;;;;8.57;1.58;;;;;;;14.65;100.00;100747.75;4984631;28;20039;-77
2022/09/10 01:39:48;;;;;;;4.95;1.25;;;;;;;14.64;100.00;100744.34;4981181;28;20076;-75
2022/09/10 01:42:14;;;;;;;8.82;1.50;;;;;;;14.65;100.00;100748.56;4967847;28;20038;-77
2022/09/10 01:44:50;;;;;;;4.72;1.42;;;;;;;14.73;100.00;100750.25;4981164;28;20069;-76
2022/09/10 01:47:23;;;;;;;7.10;1.98;;;;;;;14.68;100.00;100752.63;4981488;28;20030;-77
2022/09/10 01:50:09;;;;;;;4.68;1.48;;;;;;;14.65;100.00;100747.75;4963971;28;20196;-76
2022/09/10 01:52:42;;;;;;;5.88;1.80;;;;;;;14.74;100.00;100737.03;4952317;28;20081;-77
2022/09/10 01:55:43;;;;;;;5.80;1.35;;;;;;;14.77;100.00;100743.69;4978096;28;20125;-77
2022/09/10 01:58:26;;;;;;;5.38;1.67;;;;;;;14.70;100.00;100734.97;4982420;28;20077;-77
2022/09/10 02:01:37;;;;;;;7.18;2.03;;;;;;;14.74;100.00;100737.03;4969334;28;20034;-76
2022/09/10 02:04:07;;;;;;;5.88;2.22;;;;;;;14.73;100.00;100735.41;4969851;28;20045;-77
2022/09/10 02:06:37;;;;;;;10.60;1.85;;;;;;;14.81;100.00;100742.31;4966688;28;20749;-74
2022/09/10 02:09:06;;;;;;;10.38;2.13;;;;;;;14.75;100.00;100732.63;4970238;28;20100;-76
2022/09/10 02:11:48;;;;;;;8.27;2.92;;;;;;;14.73;100.00;100730.19;4988482;28;20026;-77
2022/09/10 02:14:32;;;;;;;4.80;2.00;;;;;;;14.86;100.00;100729.53;5002348;28;20029;-78
2022/09/10 02:17:17;;;;;;;6.28;1.65;;;;;;;14.85;100.00;100727.09;4986238;28;20019;-77
2022/09/10 02:19:46;;;;;;;7.55;2.00;;;;;;;14.76;100.00;100729.81;4987304;28;20121;-76
2022/09/10 02:22:14;;;;;;;4.70;1.77;;;;;;;14.72;100.00;100732.97;4986524;28;20036;-77
2022/09/10 02:24:40;;;;;;;8.60;2.20;;;;;;;14.83;100.00;100724.66;4988706;28;20046;-77
2022/09/10 02:27:05;;;;;;;6.97;2.08;;;;;;;14.87;100.00;100735.56;4968479;28;20122;-77
2022/09/10 02:29:32;;;;;;;8.00;2.53;;;;;;;14.84;100.00;100731.50;4969898;28;20046;-76
2022/09/10 02:31:58;;;;;;;7.47;2.13;;;;;;;14.92;100.00;100733.19;4969300;28;20125;-78
2022/09/10 02:34:24;;;;;;;3.88;1.90;;;;;;;14.92;100.00;100728.78;4968897;28;20045;-77
2022/09/10 02:36:49;;;;;;;10.00;2.63;;;;;;;14.83;100.00;100729.88;4982142;28;20034;-77
2022/09/10 02:39:15;;;;;;;9.13;3.00;;;;;;;14.86;100.00;100731.31;4986710;28;20042;-75
2022/09/10 02:41:40;;;;;;;8.32;2.15;;;;;;;14.87;100.00;100725.91;4981763;28;20041;-75
2022/09/10 02:44:07;;;;;;;9.40;2.38;;;;;;;14.91;100.00;100718.50;4965151;28;20053;-77
2022/09/10 02:46:33;;;;;;;5.80;1.98;;;;;;;14.80;100.00;100727.63;5002786;28;20034;-76
2022/09/10 02:48:58;;;;;;;7.03;2.42;;;;;;;14.79;100.00;100731.25;4984662;28;20030;-76
2022/09/10 02:51:25;;;;;;;8.82;2.50;;;;;;;14.93;100.00;100727.78;4985131;28;20245;-77
2022/09/10 02:53:50;;;;;;;6.68;3.22;;;;;;;14.88;100.00;100731.94;4969143;28;20101;-77
2022/09/10 02:56:18;;;;;;;4.32;2.20;;;;;;;14.83;100.00;100734.31;4970732;28;20526;-77
2022/09/10 02:58:44;;;;;;;7.60;2.05;;;;;;;14.78;100.00;100733.03;4985797;28;20034;-77
2022/09/10 03:01:15;;;;;;;4.80;1.55;;;;;;;14.83;100.00;100742.13;4984572;28;20073;-75
2022/09/10 03:03:50;;;;;;;8.27;1.85;;;;;;;14.79;100.00;100744.31;4985999;28;20066;-76
2022/09/10 03:06:17;;;;;;;5.20;2.20;;;;;;;14.82;100.00;100743.91;4981914;28;20029;-77
2022/09/10 03:08:42;;;;;;;3.22;2.00;;;;;;;14.83;100.00;100748.16;4985116;28;20043;-75
2022/09/10 03:11:08;;;;;;;8.02;2.08;;;;;;;14.91;100.00;100742.00;4985722;28;20026;-77
2022/09/10 03:13:34;;;;;;;8.48;3.20;;;;;;;14.93;100.00;100743.44;4987943;28;20034;-77
2022/09/10 03:16:02;;;;;;;6.22;2.50;;;;;;;15.01;100.00;100742.50;4967385;28;20806;-76
2022/09/10 03:18:30;;;;;;;5.22;2.40;;;;;;;14.93;100.00;100745.25;4983353;28;20376;-77
2022/09/10 03:21:12;;;;;;;12.70;2.42;;;;;;;14.87;100.00;100735.56;4968793;28;20574;-72
2022/09/10 03:23:39;;;;;;;10.32;2.63;;;;;;;14.89;100.00;100734.34;4985856;28;20034;-73
2022/09/10 03:26:05;;;;;;;8.13;3.30;;;;;;;14.84;100.00;100728.06;4984702;28;20495;-75
2022/09/10 03:28:31;;;;;;;5.10;2.03;;;;;;;14.80;100.00;100735.47;4982356;28;20061;-75
2022/09/10 03:31:00;;;;;;;6.63;2.17;;;;;;;14.83;100.00;100735.09;4981222;28;20369;-76
2022/09/10 03:33:27;;;;;;;7.05;2.20;;;;;;;14.82;100.00;100732.69;4967726;28;20057;-75
2022/09/10 03:35:53;;;;;;;9.70;2.28;;;;;;;14.85;100.00;100727.91;4981577;28;20022;-75
2022/09/10 03:38:19;;;;;;;8.13;2.55;;;;;;;14.84;100.00;100725.47;4984747;28;20073;-74
2022/09/10 03:40:45;;;;;;;6.60;2.15;;;;;;;14.84;100.00;100725.47;4985196;28;20030;-76
2022/09/10 03:43:11;;;;;;;8.38;2.42;;;;;;;14.89;100.00;100731.75;4984644;28;20045;-76
2022/09/10 03:45:38;;;;;;;7.57;2.10;;;;;;;14.86;100.00;100726.91;4967499;28;20181;-76
2022/09/10 03:48:04;;;;;;;10.45;2.35;;;;;;;14.79;100.00;100724.22;4969115;28;20046;-76
2022/09/10 03:50:30;;;;;;;11.50;3.28;;;;;;;14.87;100.00;100730.34;4983456;28;20145;-78
2022/09/10 03:52:56;;;;;;;8.30;3.30;;;;;;;14.89;100.00;100725.72;4978255;28;20539;-77
2022/09/10 03:55:22;;;;;;;5.45;3.00;;;;;;;14.87;100.00;100730.34;4984261;28;20478;-76
2022/09/10 03:57:48;;;;;;;10.05;2.70;;;;;;;15.01;100.00;100729.44;4975319;28;20117;-75
2022/09/10 04:00:14;;;;;;;7.53;2.92;;;;;;;14.96;100.00;100721.38;4962154;28;20038;-74
2022/09/10 04:02:45;;;;;;;15.82;3.03;;;;;;;14.97;100.00;100721.22;4985073;28;20026;-74
2022/09/10 04:05:11;;;;;;;11.40;2.97;;;;;;;14.92;100.00;100731.38;4982689;28;20040;-77
2022/09/10 04:07:37;;;;;;;11.10;2.60;;;;;;;14.90;100.00;100728.16;4983681;28;20043;-77
2022/09/10 04:10:03;;;;;;;7.13;2.45;;;;;;;14.92;100.00;100730.59;4977346;28;20023;-78
2022/09/10 04:12:28;;;;;;;8.90;3.15;;;;;;;14.92;100.00;100730.59;4968475;28;22073;-78
2022/09/10 04:14:54;;;;;;;14.48;5.20;;;;;;;14.89;100.00;100734.34;4983267;28;20503;-78
2022/09/10 04:17:19;;;;;;;5.20;2.72;;;;;;;14.92;100.00;100738.41;4982100;28;20061;-76
2022/09/10 04:19:45;;;;;;;13.18;3.05;;;;;;;14.80;100.00;100727.63;4968808;28;20046;-78
2022/09/10 04:22:11;;;;;;;13.93;3.17;;;;;;;14.74;100.00;100731.78;4968701;28;20030;-76
2022/09/10 04:24:39;;;;;;;5.88;2.75;;;;;;;14.73;100.00;100724.97;4967632;28;20029;-77
2022/09/10 04:27:05;;;;;;;10.18;3.08;;;;;;;14.83;100.00;100729.09;4964541;28;20046;-76
2022/09/10 04:29:31;;;;;;;9.95;3.00;;;;;;;14.71;100.00;100733.97;4982185;28;20089;-75
2022/09/10 04:31:57;;;;;;;7.07;3.05;;;;;;;14.73;100.00;100730.19;4980613;28;20473;-75
2022/09/10 04:34:23;;;;;;;12.75;3.42;;;;;;;14.72;100.00;100731.19;4967207;28;20236;-75
2022/09/10 04:36:52;;;;;;;8.93;3.28;;;;;;;14.70;100.00;100727.16;4969240;28;20037;-76
2022/09/10 04:39:18;;;;;;;12.43;3.10;;;;;;;14.70;100.00;100742.81;4980049;28;20128;-76
2022/09/10 04:41:46;;;;;;;8.75;3.03;;;;;;;14.71;100.00;100737.41;4983980;28;20042;-76
2022/09/10 04:44:12;;;;;;;9.52;3.20;;;;;;;14.62;100.00;100733.28;4983854;28;20030;-76
2022/09/10 04:46:41;;;;;;;12.98;3.53;;;;;;;14.65;100.00;100734.72;4964958;28;20034;-76
2022/09/10 04:49:09;;;;;;;13.38;3.78;;;;;;;14.62;100.00;100746.34;4983124;28;20039;-77
2022/09/10 04:51:35;;;;;;;10.20;3.42;;;;;;;14.58;100.00;100743.28;4982165;28;20026;-76
2022/09/10 04:54:01;;;;;;;7.93;3.30;;;;;;;14.61;100.00;100742.09;4979816;28;20406;-76
2022/09/10 04:56:31;;;;;;;5.93;3.45;;;;;;;14.64;100.00;100746.97;4967949;28;20034;-76
2022/09/10 04:58:57;;;;;;;7.68;3.10;;;;;;;14.60;100.00;100743.91;4982901;28;20041;-76
2022/09/10 05:01:27;;;;;;;13.75;3.58;;;;;;;14.63;100.00;100741.91;4984788;28;20499;-75
2022/09/10 05:03:53;;;;;;;9.73;3.20;;;;;;;14.54;100.00;100738.56;4979071;28;20030;-75
2022/09/10 05:06:19;;;;;;;11.35;4.90;;;;;;;14.59;100.00;100746.69;4980110;28;20033;-76
2022/09/10 05:08:47;;;;;;;8.25;4.05;;;;;;;14.62;100.00;100748.13;4982748;28;20104;-76
2022/09/10 05:11:12;;;;;;;11.55;3.55;;;;;;;14.60;100.00;100750.94;4983269;28;20426;-76
2022/09/10 05:13:38;;;;;;;11.18;3.83;;;;;;;14.58;100.00;100750.31;4980679;28;20559;-76
2022/09/10 05:16:04;;;;;;;7.97;3.80;;;;;;;14.58;100.00;100747.69;4986021;28;20053;-75
2022/09/10 05:18:31;;;;;;;11.57;4.43;;;;;;;14.54;100.00;100752.44;4970390;28;20445;-75
2022/09/10 05:20:57;;;;;;;9.18;3.75;;;;;;;14.53;100.00;100745.59;4967134;28;20022;-75
2022/09/10 05:23:23;;;;;;;7.03;3.92;;;;;;;14.52;100.00;100751.81;4969093;28;20034;-76
2022/09/10 05:25:50;;;;;;;13.98;4.70;;;;;;;14.57;100.00;100740.84;4983187;28;20397;-76
2022/09/10 05:28:16;;;;;;;14.13;4.45;;;;;;;14.54;100.00;100749.84;4978932;28;20038;-76
2022/09/10 05:30:44;;;;;;;5.82;2.92;;;;;;;14.55;100.00;100750.63;4966744;28;20038;-76
2022/09/10 05:33:10;;;;;;;10.02;4.10;;;;;;;14.56;100.00;100749.63;4979097;28;20026;-76
2022/09/10 05:35:35;;;;;;;8.43;3.53;;;;;;;14.56;100.00;100760.88;4976848;28;20585;-76
2022/09/10 05:38:01;;;;;;;9.77;4.65;;;;;;;14.55;100.00;100756.66;4982110;28;20030;-75
2022/09/10 05:40:29;;;;;;;9.75;4.47;;;;;;;14.62;100.00;100761.16;4967087;28;20042;-76
2022/09/10 05:42:55;;;;;;;11.82;4.22;;;;;;;14.60;100.00;100763.97;4981300;28;20903;-76
2022/09/10 05:45:22;;;;;;;7.75;3.80;;;;;;;14.61;100.00;100762.97;4978298;28;20034;-75
2022/09/10 05:47:48;;;;;;;11.60;3.83;;;;;;;14.60;100.00;100758.75;4978129;28;21166;-74
2022/09/10 05:50:19;;;;;;;9.05;4.28;;;;;;;14.60;100.00;100761.38;4966031;28;20113;-75
2022/09/10 05:52:45;;;;;;;12.93;4.45;;;;;;;14.60;100.00;100764.78;4980823;28;20026;-76
2022/09/10 05:55:11;;;;;;;12.27;4.32;;;;;;;14.60;100.00;100771.81;4965507;28;20591;-76
2022/09/10 05:57:39;;;;;;;12.18;5.07;;;;;;;14.61;100.00;100765.59;4963804;28;20049;-75
2022/09/10 06:00:07;;;;;;;8.05;4.15;;;;;;;14.60;100.00;100766.59;4964469;28;20026;-76
2022/09/10 06:02:40;;;;;;;12.98;4.68;;;;;;;14.60;100.00;100775.22;4980870;28;20034;-76
2022/09/10 06:05:07;;;;;;;18.05;4.90;;;;;;;14.65;100.00;100773.84;4983296;28;20039;-75
2022/09/10 06:07:34;;;;;;;13.40;4.22;;;;;;;14.67;100.00;100767.44;4981458;28;20038;-75
2022/09/10 06:10:01;;;;;;;11.98;4.75;;;;;;;14.64;100.00;100773.06;4980841;28;20036;-76
2022/09/10 06:12:37;;;;;;;16.48;3.20;;;;;;;14.64;100.00;100780.88;4982645;28;20502;-75
2022/09/10 06:15:04;;;;;;;12.32;3.88;;;;;;;14.70;100.00;100776.72;4969309;28;20038;-74
2022/09/10 06:17:29;;;;;;;12.00;4.65;;;;;;;14.71;100.00;100776.56;4980488;28;20169;-74
2022/09/10 06:19:55;;;;;;;10.95;3.85;;;;;;;14.72;100.00;100779.97;4968673;28;20034;-74
2022/09/10 06:22:20;;;;;;;13.10;3.72;;;;;;;14.68;100.00;100783.94;4969796;28;20081;-75
2022/09/10 06:24:49;;;;;;;16.92;4.82;;;;;;;14.68;100.00;100776.91;4978942;28;20062;-75
2022/09/10 06:27:16;;;;;;;10.20;4.90;;;;;;;14.75;100.00;100783.00;4965745;28;20026;-75
2022/09/10 06:29:42;;;;;;;12.27;3.92;;;;;;;14.70;100.00;100787.97;4967007;28;20045;-74
2022/09/10 06:32:09;;;;;;;11.02;4.22;;;;;;;14.69;100.00;100788.16;4980087;28;20030;-76
2022/09/10 06:34:35;;;;;;;10.52;3.88;;;;;;;14.70;100.00;100795.00;4984229;28;20026;-73
2022/09/10 06:37:03;;;;;;;12.32;4.55;;;;;;;14.74;100.00;100801.47;4980913;28;20038;-74
2022/09/10 06:39:29;;;;;;;8.98;4.22;;;;;;;14.72;100.00;100800.84;4962061;28;20125;-73
2022/09/10 06:41:58;;;;;;;16.05;6.88;;;;;;;14.76;100.00;100802.88;4979791;28;20057;-75
2022/09/10 06:44:46;;;;;;;14.20;5.55;;;;;;;14.74;100.00;100802.25;4981936;28;20104;-75
2022/09/10 06:47:43;;;;;;;12.15;4.82;;;;;;;14.76;100.00;100809.91;4946513;28;20074;-74
2022/09/10 06:50:09;;;;;;;13.15;4.60;;;;;;;14.71;100.00;100800.03;4967459;28;20034;-75
2022/09/10 06:52:38;;;;;;;10.38;4.60;;;;;;;14.74;100.00;100806.69;4981184;28;20238;-74
2022/09/10 06:55:06;;;;;;;13.15;5.18;;;;;;;14.71;100.00;100807.03;4984496;28;20035;-75
2022/09/10 06:57:41;;;;;;;11.90;4.30;;;;;;;14.70;100.00;100806.25;4984192;28;20155;-75
2022/09/10 07:00:08;;;;;;;13.48;4.97;;;;;;;14.76;100.00;100802.09;4982995;28;20128;-75
2022/09/10 07:02:35;;;;;;;15.10;4.88;;;;;;;14.71;100.00;100800.03;5001496;28;20156;-74
2022/09/10 07:05:02;;;;;;;15.40;4.85;;;;;;;14.76;100.00;100802.88;4985737;28;20061;-73
2022/09/10 07:07:28;;;;;;;9.68;4.43;;;;;;;14.76;100.00;100807.31;4972184;28;20156;-74
2022/09/10 07:09:54;;;;;;;11.98;5.35;;;;;;;14.74;100.00;100804.88;4983152;28;20606;-75
2022/09/10 07:12:20;;;;;;;16.77;5.15;;;;;;;14.79;100.00;100809.56;4985352;28;20034;-74
2022/09/10 07:14:46;;;;;;;12.13;4.95;;;;;;;14.80;100.00;100808.56;4981726;28;20423;-73
2022/09/10 07:17:11;;;;;;;9.15;4.95;;;;;;;14.87;100.00;100806.03;4970928;28;20026;-75
2022/09/10 07:19:37;;;;;;;12.35;5.68;;;;;;;14.85;100.00;100816.66;4986917;28;20046;-75
2022/09/10 07:22:10;;;;;;;16.48;6.20;;;;;;;14.85;100.00;100814.03;4983137;28;20046;-73
2022/09/10 07:24:37;;;;;;;17.50;5.45;;;;;;;14.92;100.00;100817.53;4987499;28;20038;-76
2022/09/10 07:27:06;;;;;;;12.23;5.50;;;;;;;14.95;100.00;100814.53;4966061;28;20026;-73
2022/09/10 07:29:34;;;;;;;11.02;5.28;;;;;;;14.94;100.00;100810.34;4968531;28;20545;-73
2022/09/10 07:32:02;;;;;;;10.52;5.65;;;;;;;15.06;100.00;100817.69;4985278;28;20137;-73
2022/09/10 07:34:29;;;;;;;13.88;5.05;;;;;;;15.17;100.00;100818.00;4985636;28;20034;-75
2022/09/10 07:36:55;;;;;;;9.65;5.47;;;;;;;15.19;100.00;100815.22;4985004;28;20036;-76
2022/09/10 07:39:22;;;;;;;12.43;5.60;;;;;;;15.19;100.00;100820.44;4984817;28;20038;-73
2022/09/10 07:41:47;;;;;;;17.48;7.45;;;;;;;15.32;100.00;100817.16;4983666;28;20041;-74
2022/09/10 07:44:14;;;;;;;15.35;6.00;;;;;;;15.34;100.00;100822.97;4968362;28;20961;-74
2022/09/10 07:46:43;;;;;;;11.95;5.60;;;;;;;15.35;100.00;100817.56;4982790;28;20045;-73
2022/09/10 07:49:11;;;;;;;12.63;5.97;;;;;;;15.32;100.00;100820.56;5000102;28;20052;-75
2022/09/10 07:51:39;;;;;;;15.00;7.20;;;;;;;15.27;100.00;100812.47;4964730;28;20101;-74
2022/09/10 07:54:05;;;;;;;15.30;7.00;;;;;;;15.33;100.00;100808.28;4981031;28;20117;-74
2022/09/10 07:56:44;;;;;;;13.38;7.07;;;;;;;15.44;100.00;100810.41;4978532;28;20570;-74
2022/09/10 07:59:12;;;;;;;9.60;6.40;;;;;;;15.46;100.00;100812.84;4982789;28;20034;-75
2022/09/10 08:01:48;;;;;;;17.13;7.15;;;;;;;15.50;100.00;100807.06;4969301;28;20550;-74
2022/09/10 08:04:16;;;;;;;15.68;6.90;;;;;;;15.52;100.00;100812.91;4984129;28;20040;-73
2022/09/10 08:06:41;;;;;;;16.38;6.80;;;;;;;15.51;100.00;100805.25;4981103;28;20026;-74
2022/09/10 08:09:07;;;;;;;13.98;7.10;;;;;;;15.58;100.00;100811.34;4964855;28;20038;-73
2022/09/10 08:11:39;;;;;;;15.60;6.97;;;;;;;15.59;100.00;100810.34;4982756;28;20038;-73
2022/09/10 08:14:06;;;;;;;15.18;7.13;;;;;;;15.62;100.00;100806.56;4982724;28;20038;-74
2022/09/10 08:16:32;;;;;;;13.55;7.10;;;;;;;15.67;100.00;100814.63;4984347;28;20092;-73
2022/09/10 08:19:04;;;;;;;18.90;8.60;;;;;;;15.57;100.00;100805.28;4969760;28;21551;-73
2022/09/10 08:21:31;;;;;;;14.57;7.68;;;;;;;15.62;100.00;100803.94;4984713;28;20065;-75
2022/09/10 08:23:59;;;;;;;13.60;6.70;;;;;;;15.61;100.00;100810.94;4999512;28;20041;-73
2022/09/10 08:26:26;;;;;;;13.75;6.13;;;;;;;15.59;100.00;100807.72;4984862;28;20356;-75
2022/09/10 08:28:56;;;;;;;15.23;7.28;;;;;;;15.54;100.00;100815.34;4983517;28;20030;-73
2022/09/10 08:31:25;;;;;;;15.65;8.50;;;;;;;15.68;100.00;100809.19;4968469;28;20053;-72
2022/09/10 08:34:07;;;;;;;11.90;7.95;;;;;;;15.56;100.00;100811.53;4978168;28;20034;-75
2022/09/10 08:36:35;;;;;;;16.13;8.60;;;;;;;15.55;100.00;100812.50;4984371;28;20029;-75
2022/09/10 08:39:00;;;;;;;16.20;7.80;;;;;;;15.50;100.00;100807.06;4981428;28;20026;-76
2022/09/10 08:41:37;;;;;;;20.42;9.23;;;;;;;15.43;100.00;100815.84;4967470;28;20504;-76
2022/09/10 08:44:19;;;;;;;16.35;8.68;;;;;;;15.34;100.00;100805.50;4970660;28;20045;-77
2022/09/10 08:46:54;;;;;;;15.13;8.98;;;;;;;15.27;100.00;100796.78;4982321;28;20250;-76
2022/09/10 08:49:38;;;;;;;14.77;9.23;;;;;;;15.31;100.00;100800.66;4963863;28;20503;-74
2022/09/10 08:52:26;;;;;;;15.57;9.50;;;;;;;15.26;100.00;100800.41;4968870;28;20487;-77
2022/09/10 08:55:15;;;;;;;19.95;10.10;;;;;;;15.25;100.00;100813.66;4998988;28;20062;-75
2022/09/10 08:57:50;;;;;;;21.20;10.10;;;;;;;15.25;100.00;100811.03;4983227;28;20041;-75
2022/09/10 09:00:19;;;;;;;16.85;9.95;;;;;;;15.22;100.00;100814.00;4981520;28;20618;-76
2022/09/10 09:03:23;;;;;;;16.10;8.80;;;;;;;15.27;100.00;100812.47;4969167;28;20030;-76
2022/09/10 09:05:56;;;;;;;20.60;10.57;;;;;;;15.17;100.00;100814.59;4967552;28;20483;-75
2022/09/10 09:08:33;;;;;;;17.85;9.88;;;;;;;15.22;100.00;100820.06;4979839;28;20525;-76
2022/09/10 09:11:11;;;;;;;14.10;9.13;;;;;;;15.27;100.00;100825.53;4988026;28;20741;-75
2022/09/10 09:13:54;;;;;;;17.00;8.90;;;;;;;15.36;100.00;100826.22;4980657;28;20053;-75
2022/09/10 09:16:32;;;;;;;17.45;10.45;;;;;;;15.35;100.00;100820.19;4978081;28;20034;-75
2022/09/10 09:19:30;;;;;;;16.63;10.05;;;;;;;15.44;100.00;100813.03;4968289;28;20643;-77
2022/09/10 09:22:26;;;;;;;14.75;9.07;;;;;;;15.45;100.00;100819.88;4998292;28;20068;-76
2022/09/10 09:24:58;;;;;;;14.43;9.05;;;;;;;15.46;100.00;100818.06;4980148;28;20120;-75
2022/09/10 09:27:28;;;;;;;16.17;10.32;;;;;;;15.36;100.00;100815.78;4985058;28;20030;-77
2022/09/10 09:30:05;;;;;;;23.48;11.23;;;;;;;15.47;100.00;100815.25;4968127;28;20093;-75
2022/09/10 09:32:39;;;;;;;21.58;10.65;;;;;;;15.51;100.00;100821.72;4983573;28;20037;-76
2022/09/10 09:35:31;;;;;;;17.80;11.13;;;;;;;15.49;100.00;100810.66;4981401;28;20037;-74
2022/09/10 09:38:07;;;;;;;;;;;;;;;15.48;100.00;100809.06;4968325;28;20062;-75
2022/09/10 09:40:58;;;;;;;19.10;11.43;;;;;;;15.38;100.00;100814.56;4967454;28;20503;-75
2022/09/10 09:43:39;;;;;;;18.98;11.60;;;;;;;15.41;100.00;100813.41;4985496;28;20512;-78
2022/09/10 09:46:11;;;;;;;17.85;11.70;;;;;;;15.37;100.00;100810.38;4983673;28;20038;-76
2022/09/10 09:48:39;;;;;;;21.25;12.43;;;;;;;15.48;100.00;100803.00;4968435;28;20121;-76
2022/09/10 09:51:09;;;;;;;18.55;11.82;;;;;;;15.52;100.00;100814.69;4985525;28;20438;-76
2022/09/10 09:53:35;;;;;;;23.60;11.93;;;;;;;15.50;100.00;100811.47;4971164;28;20041;-77
2022/09/10 09:56:03;;;;;;;24.20;12.07;;;;;;;15.50;100.00;100825.34;4972283;28;20043;-80
2022/09/10 09:58:33;;;;;;;19.55;12.02;;;;;;;15.46;100.00;100816.25;4971379;28;20042;-75
2022/09/10 10:01:04;;;;;;;23.48;12.82;;;;;;;15.50;100.00;100809.69;4971860;28;20715;-74
2022/09/10 10:03:51;;;;;;;22.55;12.57;;;;;;;15.50;100.00;100816.69;4983632;28;20026;-74
2022/09/10 10:06:25;;;;;;;22.25;12.60;;;;;;;15.46;100.00;100818.06;4990767;28;20396;-75
2022/09/10 10:08:56;;;;;;;20.25;12.15;;;;;;;15.52;100.00;100825.97;4987699;28;20066;-76
2022/09/10 10:12:06;;;;;;;23.00;13.25;;;;;;;15.46;100.00;100813.63;4986952;28;20716;-75
2022/09/10 10:14:31;;;;;;;19.73;12.98;;;;;;;15.53;100.00;100821.53;4981006;28;20042;-75
2022/09/10 10:16:59;;;;;;;18.20;12.52;;;;;;;15.55;100.00;100819.56;4987333;28;20044;-74
2022/09/10 10:19:34;;;;;;;20.13;12.35;;;;;;;15.59;100.00;100823.41;4970107;28;20495;-74
2022/09/10 10:22:21;;;;;;;26.02;12.23;;;;;;;15.57;100.00;100831.44;4979195;28;20038;-76
2022/09/10 10:24:49;;;;;;;22.80;13.75;;;;;;;15.52;100.00;100823.34;4986999;28;20034;-76
2022/09/10 10:27:31;;;;;;;23.63;13.27;;;;;;;15.61;100.00;100821.41;4986258;28;20197;-73
2022/09/10 10:30:06;;;;;;;26.77;13.75;;;;;;;15.73;100.00;100819.94;4992803;28;20042;-75
2022/09/10 10:32:37;;;;;;;22.77;13.43;;;;;;;15.85;100.00;100822.03;4984402;28;20912;-75
2022/09/10 10:35:31;;;;;;;22.52;13.73;;;;;;;15.86;100.00;100832.31;4982004;28;20498;-75
2022/09/10 10:38:09;;;;;;;24.17;14.18;;;;;;;15.81;100.00;100828.66;4979775;28;20034;-75
2022/09/10 10:40:42;;;;;;;27.58;13.90;;;;;;;15.89;100.00;100828.50;4984320;28;20042;-74
2022/09/10 10:43:33;;;;;;;20.77;12.52;;;;;;;15.77;100.00;100825.59;4990061;28;20038;-74
2022/09/10 10:46:03;;;;;;;20.77;12.50;;;;;;;15.73;100.00;100830.41;4989758;28;20053;-75
2022/09/10 10:48:51;;;;;;;20.55;12.73;;;;;;;15.54;100.00;100831.81;4987391;28;20058;-75
2022/09/10 10:51:50;;;;;;;27.10;12.65;;;;;;;15.66;100.00;100837.34;4990666;28;20487;-76
2022/09/10 10:54:23;;;;;;;19.38;12.82;;;;;;;15.71;100.00;100836.78;4989072;28;20601;-76
2022/09/10 10:57:15;;;;;;;;;;;;;;;15.73;100.00;100838.25;4987392;28;20030;-75
2022/09/10 10:59:45;;;;;;;28.25;14.10;;;;;;;15.84;100.00;100829.06;4982036;28;19920;-75
2022/09/10 11:02:32;;;;;;;19.17;13.68;;;;;;;15.90;100.00;100836.16;4967486;28;20046;-74
2022/09/10 11:05:03;;;;;;;22.42;13.75;;;;;;;15.90;100.00;100824.91;4986821;28;20042;-75
2022/09/10 11:07:40;;;;;;;25.08;15.23;;;;;;;16.09;100.00;100839.91;4972599;28;20049;-75
2022/09/10 11:10:26;;;;;;;24.25;14.88;;;;;;;16.33;100.00;100841.25;4989553;28;20042;-75
2022/09/10 11:13:20;;;;;;;23.05;14.65;;;;;;;16.65;100.00;100838.19;4983280;28;20038;-76
2022/09/10 11:15:48;;;;;;;23.77;13.88;;;;;;;16.71;100.00;100832.97;4988275;28;20073;-76
2022/09/10 11:18:26;;;;;;;20.20;13.90;;;;;;;16.71;100.00;100838.22;4991177;28;20038;-76
2022/09/10 11:21:17;;;;;;;21.23;12.93;;;;;;;16.70;100.00;100836.59;4971221;28;20789;-76
2022/09/10 11:23:50;;;;;;;21.38;14.10;;;;;;;16.68;100.00;100832.56;4988032;28;20050;-74
2022/09/10 11:26:23;;;;;;;;;;;;;;;16.76;100.00;100824.53;4989477;28;20631;-74
2022/09/10 11:29:07;;;;;;;21.77;13.02;;;;;;;16.87;100.00;100828.44;4988741;28;19918;-76
2022/09/10 11:31:43;;;;;;;21.52;13.30;;;;;;;16.96;100.00;100826.47;5005723;28;20101;-75